Time;durP1;ratioP1;P1;durP2;ratioP2;P2;SDS_P1;SDS_P2;PMS_P1;PMS_P2;Temp;Humidity;BMP_temperature;BMP_pressure;BME280_temperature;BME280_humidity;BME280_pressure;Samples;Min_cycle;Max_cycle;Signal;HPM_P1;HPM_P2
2023/12/01 00:00:10;;;;;;;14.25;7.82;;;;;;;-1.00;100.00;99564.50;4973018;28;20034;-89
2023/12/01 00:02:36;;;;;;;15.88;8.38;;;;;;;-0.98;100.00;99568.66;4973055;28;20508;-88
2023/12/01 00:05:01;;;;;;;12.90;8.32;;;;;;;-1.04;100.00;99560.41;4973061;28;20023;-89
2023/12/01 00:07:26;;;;;;;14.75;7.55;;;;;;;-1.10;100.00;99554.63;4973251;28;20033;-89
2023/12/01 00:09:52;;;;;;;15.10;8.50;;;;;;;-1.17;100.00;99558.16;4973095;28;20034;-88
2023/12/01 00:12:17;;;;;;;14.95;7.97;;;;;;;-1.16;100.00;99553.94;4972869;28;20492;-88
2023/12/01 00:14:43;;;;;;;12.43;7.93;;;;;;;-1.17;100.00;99560.69;4971837;28;20027;-89
2023/12/01 00:17:08;;;;;;;11.38;7.72;;;;;;;-1.22;100.00;99554.06;4972197;28;20174;-89
2023/12/01 00:19:34;;;;;;;15.10;8.20;;;;;;;-1.20;100.00;99562.44;4971197;28;20031;-89
2023/12/01 00:21:59;;;;;;;11.68;8.77;;;;;;;-1.18;100.00;99560.72;4971799;28;20034;-89
2023/12/01 00:24:24;;;;;;;14.45;9.18;;;;;;;-1.23;100.00;99560.81;4972076;28;20116;-88
2023/12/01 00:26:49;;;;;;;16.83;7.95;;;;;;;-1.33;100.00;99572.88;4972869;28;20031;-88
2023/12/01 00:29:15;;;;;;;15.23;10.05;;;;;;;-1.15;100.00;99570.78;4971510;28;20030;-88
2023/12/01 00:31:40;;;;;;;13.07;8.13;;;;;;;-1.26;100.00;99572.75;4972863;28;20031;-88
2023/12/01 00:34:06;;;;;;;13.88;8.50;;;;;;;-1.27;100.00;99566.00;4972451;28;20023;-89
2023/12/01 00:36:32;;;;;;;15.05;8.80;;;;;;;-1.38;100.00;99569.59;4972877;28;20101;-89
2023/12/01 00:38:58;;;;;;;21.80;9.18;;;;;;;-1.20;100.00;99572.59;4972858;28;20389;-89
2023/12/01 00:41:23;;;;;;;16.88;9.73;;;;;;;-1.25;100.00;99574.38;4972777;28;20023;-89
2023/12/01 00:43:49;;;;;;;16.50;9.55;;;;;;;-1.20;100.00;99578.47;4972651;28;20437;-89
2023/12/01 00:46:14;;;;;;;16.10;9.13;;;;;;;-1.28;100.00;99574.47;4972571;28;20089;-89
2023/12/01 00:48:39;;;;;;;15.00;8.77;;;;;;;-1.21;100.00;99576.00;4971278;28;20540;-89
2023/12/01 00:51:05;;;;;;;17.02;8.80;;;;;;;-1.33;100.00;99577.09;4973014;28;20026;-89
2023/12/01 00:53:30;;;;;;;17.13;9.07;;;;;;;-1.31;100.00;99571.13;4972574;28;20539;-89
2023/12/01 00:55:56;;;;;;;15.95;9.18;;;;;;;-1.29;100.00;99573.66;4972781;28;20060;-89
2023/12/01 00:58:21;;;;;;;18.77;9.27;;;;;;;-1.37;100.00;99576.31;4972457;28;20027;-89
2023/12/01 01:00:46;;;;;;;13.55;9.43;;;;;;;-1.38;100.00;99584.78;4972660;28;20035;-89
2023/12/01 01:03:12;;;;;;;15.98;8.70;;;;;;;-1.45;100.00;99573.13;4972876;28;20470;-88
2023/12/01 01:05:37;;;;;;;17.13;9.40;;;;;;;-1.43;100.00;99586.59;4976067;28;20015;-89
2023/12/01 01:08:03;;;;;;;15.95;8.88;;;;;;;-1.38;100.00;99594.09;4976048;28;20035;-89
2023/12/01 01:10:28;;;;;;;14.15;9.00;;;;;;;-1.28;100.00;99595.53;4976167;28;20060;-89
2023/12/01 01:12:53;;;;;;;15.10;8.73;;;;;;;-1.30;100.00;99590.50;4975880;28;20027;-89
2023/12/01 01:15:19;;;;;;;16.15;8.68;;;;;;;-1.40;100.00;99589.06;4975899;28;20027;-89
2023/12/01 01:17:44;;;;;;;14.45;9.23;;;;;;;-1.27;100.00;99593.84;4975984;28;20470;-89
2023/12/01 01:20:10;;;;;;;16.80;9.15;;;;;;;-1.37;100.00;99595.75;4975816;28;20027;-89
2023/12/01 01:22:36;;;;;;;16.92;9.20;;;;;;;-1.42;100.00;99593.31;4975741;28;20039;-89
2023/12/01 01:25:04;;;;;;;17.30;9.60;;;;;;;-1.52;100.00;99581.72;4975570;28;20120;-89
2023/12/01 01:27:30;;;;;;;15.85;9.30;;;;;;;-1.50;100.00;99580.00;4975759;28;20037;-89
2023/12/01 01:29:55;;;;;;;17.60;9.85;;;;;;;-1.48;100.00;99588.41;4975702;28;20058;-89
2023/12/01 01:32:20;;;;;;;18.10;10.65;;;;;;;-1.54;100.00;99593.59;4975731;28;20050;-89
2023/12/01 01:34:46;;;;;;;16.65;10.05;;;;;;;-1.52;100.00;99594.38;4975452;28;20560;-89
2023/12/01 01:37:11;;;;;;;15.77;9.65;;;;;;;-1.46;100.00;99596.81;4975587;28;20030;-89
2023/12/01 01:39:36;;;;;;;17.17;9.93;;;;;;;-1.49;100.00;99594.31;4975722;28;20173;-89
2023/12/01 01:42:02;;;;;;;15.82;10.10;;;;;;;-1.45;100.00;99592.56;4975564;28;20031;-89
2023/12/01 01:44:27;;;;;;;17.65;8.68;;;;;;;-1.55;100.00;99597.00;4975306;28;20034;-89
2023/12/01 01:46:54;;;;;;;18.80;10.10;;;;;;;-1.46;100.00;99596.81;4975291;28;20086;-89
2023/12/01 01:49:25;;;;;;;15.50;10.10;;;;;;;-1.57;100.00;99593.66;4975171;28;20131;-89
2023/12/01 01:51:52;;;;;;;16.90;10.77;;;;;;;-1.51;100.00;99593.53;4975470;28;20027;-89
2023/12/01 01:54:19;;;;;;;17.10;10.93;;;;;;;-1.54;100.00;99601.16;4975164;28;20027;-89
2023/12/01 01:56:44;;;;;;;18.30;10.10;;;;;;;-1.50;100.00;99595.19;4973907;28;20432;-89
2023/12/01 01:59:10;;;;;;;14.27;10.15;;;;;;;-1.57;100.00;99603.78;4975111;28;20026;-89
2023/12/01 02:01:39;;;;;;;14.80;9.98;;;;;;;-1.67;100.00;99598.06;4975244;28;20031;-89
2023/12/01 02:04:07;;;;;;;20.17;10.20;;;;;;;-1.72;100.00;99604.94;4975094;28;20023;-89
2023/12/01 02:06:33;;;;;;;16.15;10.05;;;;;;;-1.70;100.00;99609.97;4975042;28;20477;-89
2023/12/01 02:08:59;;;;;;;14.13;9.77;;;;;;;-1.78;100.00;99603.38;4975054;28;20043;-89
2023/12/01 02:11:25;;;;;;;17.02;10.20;;;;;;;-1.81;100.00;99613.53;4974902;28;20819;-89
2023/12/01 02:13:52;;;;;;;17.60;10.10;;;;;;;-1.82;100.00;99609.34;4974641;28;20023;-89
2023/12/01 02:16:17;;;;;;;20.30;10.30;;;;;;;-1.70;100.00;99620.09;4974914;28;20117;-89
2023/12/01 02:18:43;;;;;;;17.42;10.43;;;;;;;-1.65;100.00;99616.59;4974743;28;20105;-88
2023/12/01 02:21:08;;;;;;;18.95;10.05;;;;;;;-1.74;100.00;99620.13;4974793;28;20054;-89
2023/12/01 02:23:33;;;;;;;15.48;10.02;;;;;;;-1.75;100.00;99613.41;4974672;28;20080;-89
2023/12/01 02:25:59;;;;;;;19.48;10.95;;;;;;;-1.78;100.00;99610.97;4974734;28;20101;-89
2023/12/01 02:28:24;;;;;;;15.27;9.68;;;;;;;-1.75;100.00;99620.19;4974729;28;20113;-89
2023/12/01 02:30:52;;;;;;;18.02;10.93;;;;;;;-1.82;100.00;99624.53;4974527;28;20025;-89
2023/12/01 02:33:18;;;;;;;18.25;10.88;;;;;;;-1.75;100.00;99625.25;4974603;28;20062;-88
2023/12/01 02:35:48;;;;;;;23.10;10.82;;;;;;;-1.65;100.00;99625.88;4974473;28;20485;-88
2023/12/01 02:38:13;;;;;;;15.35;9.52;;;;;;;-1.70;100.00;99632.75;4974460;28;20102;-89
2023/12/01 02:40:49;;;;;;;16.17;10.77;;;;;;;-1.75;100.00;99626.06;4974452;28;20109;-89
2023/12/01 02:43:15;;;;;;;18.73;9.75;;;;;;;-1.91;100.00;99629.75;4974466;28;20106;-88
2023/12/01 02:45:41;;;;;;;16.95;9.63;;;;;;;-1.85;100.00;99629.66;4974382;28;20022;-89
2023/12/01 02:48:07;;;;;;;15.48;9.82;;;;;;;-1.88;100.00;99631.38;4974344;28;20027;-89
2023/12/01 02:50:33;;;;;;;16.50;10.57;;;;;;;-1.89;100.00;99637.31;4974298;28;20064;-89
2023/12/01 02:52:59;;;;;;;16.13;9.50;;;;;;;-1.94;100.00;99627.28;4973032;28;20385;-88
2023/12/01 02:55:25;;;;;;;17.25;10.38;;;;;;;-2.00;100.00;99630.78;4974148;28;20038;-89
2023/12/01 02:57:50;;;;;;;16.92;9.45;;;;;;;-2.00;100.00;99630.78;4974230;28;20030;-89
2023/12/01 03:00:16;;;;;;;18.15;9.70;;;;;;;-1.95;100.00;99629.00;4974141;28;20050;-88
2023/12/01 03:02:44;;;;;;;17.38;10.18;;;;;;;-1.96;100.00;99629.00;4973956;28;20031;-89
2023/12/01 03:05:10;;;;;;;17.10;9.68;;;;;;;-1.96;100.00;99623.97;4974044;28;20026;-91
2023/12/01 03:07:37;;;;;;;19.77;11.13;;;;;;;-2.07;100.00;99629.22;4973952;28;20038;-89
2023/12/01 03:10:03;;;;;;;16.92;9.90;;;;;;;-2.10;100.00;99634.31;4974248;28;20027;-89
2023/12/01 03:12:29;;;;;;;17.83;10.45;;;;;;;-2.14;100.00;99630.22;4972567;28;20523;-89
2023/12/01 03:14:54;;;;;;;18.52;11.35;;;;;;;-2.05;100.00;99637.63;4972242;28;20098;-89
2023/12/01 03:17:23;;;;;;;16.67;10.80;;;;;;;-2.11;100.00;99626.78;4973920;28;20027;-89
2023/12/01 03:19:49;;;;;;;16.92;10.07;;;;;;;-2.10;100.00;99620.84;4973747;28;20023;-89
2023/12/01 03:22:14;;;;;;;16.30;9.27;;;;;;;-2.12;100.00;99627.63;4973495;28;20433;-89
2023/12/01 03:24:41;;;;;;;19.48;10.55;;;;;;;-2.12;100.00;99625.09;4973687;28;20030;-89
2023/12/01 03:27:07;;;;;;;20.45;10.40;;;;;;;-2.08;100.00;99626.72;4972888;28;20114;-89
2023/12/01 03:29:33;;;;;;;19.52;10.82;;;;;;;-1.83;100.00;99625.41;4973649;28;20441;-89
2023/12/01 03:31:59;;;;;;;18.27;10.45;;;;;;;-1.86;100.00;99622.91;4973576;28;20109;-89
2023/12/01 03:34:24;;;;;;;21.23;12.18;;;;;;;-1.86;100.00;99617.84;4973489;28;20034;-89
2023/12/01 03:36:51;;;;;;;19.60;10.50;;;;;;;-1.87;100.00;99628.84;4973390;28;20516;-89
2023/12/01 03:39:16;;;;;;;23.15;10.95;;;;;;;-1.80;100.00;99625.34;4973419;28;20528;-89
2023/12/01 03:41:45;;;;;;;17.55;10.32;;;;;;;-1.91;100.00;99624.69;4973551;28;20027;-89
2023/12/01 03:44:11;;;;;;;20.73;11.85;;;;;;;-1.92;100.00;99627.28;4973025;28;20101;-89
2023/12/01 03:46:36;;;;;;;19.05;11.65;;;;;;;-1.94;100.00;99625.59;4973219;28;20461;-89
2023/12/01 03:49:02;;;;;;;20.98;11.25;;;;;;;-1.91;100.00;99634.00;4973228;28;20033;-89
2023/12/01 03:51:27;;;;;;;17.25;9.70;;;;;;;-1.96;100.00;99632.38;4973198;28;20099;-89
2023/12/01 03:53:52;;;;;;;17.83;10.75;;;;;;;-1.98;100.00;99628.22;4973136;28;20026;-88
2023/12/01 03:56:18;;;;;;;21.08;11.98;;;;;;;-1.94;100.00;99629.81;4973244;28;20034;-89
2023/12/01 03:58:43;;;;;;;17.75;10.13;;;;;;;-1.95;100.00;99630.69;4973100;28;20109;-89
2023/12/01 04:01:09;;;;;;;21.17;11.18;;;;;;;-2.04;100.00;99631.69;4973161;28;20034;-89
2023/12/01 04:03:34;;;;;;;21.42;11.77;;;;;;;-2.03;100.00;99632.53;4973081;28;20106;-89
2023/12/01 04:06:01;;;;;;;16.60;10.43;;;;;;;-2.03;100.00;99637.56;4972960;28;20061;-89
2023/12/01 04:08:27;;;;;;;17.08;10.75;;;;;;;-2.06;100.00;99627.53;4973009;28;20022;-89
2023/12/01 04:10:52;;;;;;;18.05;10.02;;;;;;;-2.09;100.00;99637.72;4973071;28;20023;-89
2023/12/01 04:13:19;;;;;;;19.50;10.57;;;;;;;-2.00;100.00;99634.97;4973176;28;20037;-89
2023/12/01 04:15:45;;;;;;;19.42;10.48;;;;;;;-2.05;100.00;99636.78;4972778;28;20058;-89
2023/12/01 04:18:11;;;;;;;23.42;10.63;;;;;;;-2.02;100.00;99639.25;4973019;28;20031;-89
2023/12/01 04:20:39;;;;;;;17.58;10.25;;;;;;;-1.91;100.00;99639.03;4972930;28;20035;-89
2023/12/01 04:23:11;;;;;;;19.25;11.90;;;;;;;-1.99;100.00;99639.19;4972789;28;20034;-90
2023/12/01 04:25:38;;;;;;;20.83;10.20;;;;;;;-2.04;100.00;99640.97;4972706;28;20022;-89
2023/12/01 04:28:06;;;;;;;19.23;11.48;;;;;;;-2.07;100.00;99635.97;4971482;28;20090;-89
2023/12/01 04:30:32;;;;;;;18.55;10.45;;;;;;;-1.96;100.00;99641.66;4972850;28;20019;-89
2023/12/01 04:32:59;;;;;;;17.48;11.05;;;;;;;-1.99;100.00;99639.19;4972717;28;20466;-89
2023/12/01 04:35:35;;;;;;;21.83;11.88;;;;;;;-2.04;100.00;99638.44;4972705;28;20031;-88
2023/12/01 04:38:05;;;;;;;23.25;11.95;;;;;;;-1.99;100.00;99631.63;4974334;28;20023;-89
2023/12/01 04:40:32;;;;;;;19.08;11.63;;;;;;;-2.00;100.00;99632.44;4976615;28;20027;-89
2023/12/01 04:42:58;;;;;;;22.42;12.75;;;;;;;-2.04;100.00;99633.41;4976577;28;20054;-89
2023/12/01 04:45:25;;;;;;;28.35;11.82;;;;;;;-2.00;100.00;99637.50;4976298;28;20027;-88
2023/12/01 04:47:52;;;;;;;21.83;11.80;;;;;;;-2.09;100.00;99638.53;4976437;28;20035;-89
2023/12/01 04:50:20;;;;;;;17.63;11.00;;;;;;;-1.99;100.00;99641.72;4976338;28;20058;-89
2023/12/01 04:52:47;;;;;;;23.88;12.00;;;;;;;-2.12;100.00;99637.75;4976410;28;20022;-89
2023/12/01 04:55:20;;;;;;;18.95;11.80;;;;;;;-2.16;100.00;99635.28;4976216;28;20033;-88
2023/12/01 04:57:46;;;;;;;22.30;12.75;;;;;;;-2.20;100.00;99641.25;4976705;28;20023;-88
2023/12/01 05:00:19;;;;;;;17.98;11.02;;;;;;;-2.26;100.00;99638.00;4976386;28;20052;-89
2023/12/01 05:02:52;;;;;;;24.08;12.02;;;;;;;-2.30;100.00;99637.22;4976396;28;20023;-88
2023/12/01 05:05:19;;;;;;;23.33;12.30;;;;;;;-2.32;100.00;99635.59;4975949;28;20121;-88
2023/12/01 05:07:45;;;;;;;20.85;12.40;;;;;;;-2.34;100.00;99643.22;4976050;28;20089;-88
2023/12/01 05:10:14;;;;;;;22.55;12.57;;;;;;;-2.35;100.00;99648.28;4976184;28;20421;-89
2023/12/01 05:12:50;;;;;;;20.38;12.40;;;;;;;-2.33;100.00;99642.34;4975853;28;20061;-88
2023/12/01 05:15:20;;;;;;;18.60;11.27;;;;;;;-2.29;100.00;99643.97;4976161;28;20382;-88
2023/12/01 05:17:59;;;;;;;21.70;13.35;;;;;;;-2.25;100.00;99635.44;4976058;28;20540;-88
2023/12/01 05:20:27;;;;;;;23.52;12.60;;;;;;;-2.26;100.00;99643.91;4975899;28;20114;-88
2023/12/01 05:23:10;;;;;;;18.63;12.25;;;;;;;-2.33;100.00;99647.38;4975959;28;20027;-88
2023/12/01 05:25:43;;;;;;;23.13;11.93;;;;;;;-2.37;100.00;99643.25;4975745;28;20022;-87
2023/12/01 05:28:10;;;;;;;20.33;12.65;;;;;;;-2.40;100.00;99646.66;4975547;28;20511;-90
2023/12/01 05:30:38;;;;;;;20.63;12.15;;;;;;;-2.33;100.00;99646.56;4975709;28;20038;-90
2023/12/01 05:33:04;;;;;;;22.17;13.05;;;;;;;-2.26;100.00;99648.94;4975618;28;20018;-88
2023/12/01 05:35:30;;;;;;;20.17;12.98;;;;;;;-2.34;100.00;99645.75;4975431;28;20031;-89
2023/12/01 05:37:57;;;;;;;21.00;12.45;;;;;;;-2.31;100.00;99648.19;4975453;28;20023;-89
2023/12/01 05:40:31;;;;;;;25.70;14.13;;;;;;;-2.14;100.00;99650.44;4974193;28;20395;-88
2023/12/01 05:42:57;;;;;;;24.23;13.35;;;;;;;-2.23;100.00;99653.94;4975648;28;20019;-88
2023/12/01 05:45:27;;;;;;;21.08;12.88;;;;;;;-2.30;100.00;99652.38;4975429;28;20047;-88
2023/12/01 05:47:54;;;;;;;21.48;12.77;;;;;;;-2.27;100.00;99652.31;4975384;28;20031;-89
2023/12/01 05:50:20;;;;;;;22.73;12.27;;;;;;;-2.30;100.00;99651.56;4974455;28;20268;-89
2023/12/01 05:52:46;;;;;;;21.02;11.77;;;;;;;-2.19;100.00;99649.69;4975652;28;20030;-88
2023/12/01 05:55:16;;;;;;;21.20;11.88;;;;;;;-2.25;100.00;99649.78;4975324;28;20054;-88
2023/12/01 05:57:46;;;;;;;24.13;13.35;;;;;;;-2.30;100.00;99646.50;4975321;28;20027;-88
2023/12/01 06:00:15;;;;;;;24.98;13.57;;;;;;;-2.27;100.00;99652.31;4975260;28;20031;-89
2023/12/01 06:02:47;;;;;;;21.40;12.50;;;;;;;-2.28;100.00;99650.66;4975017;28;20076;-88
2023/12/01 06:05:15;;;;;;;24.35;13.18;;;;;;;-2.30;100.00;99652.38;4973850;28;20139;-88
2023/12/01 06:07:42;;;;;;;23.65;13.40;;;;;;;-2.25;100.00;99644.72;4975132;28;20023;-88
2023/12/01 06:10:09;;;;;;;21.42;13.27;;;;;;;-2.28;100.00;99642.25;4975007;28;20509;-88
2023/12/01 06:12:37;;;;;;;21.75;12.48;;;;;;;-2.32;100.00;99654.09;4975127;28;20359;-88
2023/12/01 06:15:05;;;;;;;21.65;13.07;;;;;;;-2.32;100.00;99654.09;4974950;28;20492;-88
2023/12/01 06:17:31;;;;;;;22.42;13.85;;;;;;;-2.32;100.00;99655.81;4975293;28;20031;-88
2023/12/01 06:19:57;;;;;;;25.58;14.30;;;;;;;-2.32;100.00;99660.84;4974879;28;20165;-88
2023/12/01 06:22:22;;;;;;;23.85;14.40;;;;;;;-2.26;100.00;99661.59;4974774;28;20102;-88
2023/12/01 06:24:48;;;;;;;22.08;13.75;;;;;;;-2.25;100.00;99665.78;4974766;28;20030;-88
2023/12/01 06:27:13;;;;;;;21.85;12.75;;;;;;;-2.17;100.00;99674.06;4974532;28;20041;-87
2023/12/01 06:29:39;;;;;;;21.85;12.63;;;;;;;-2.26;100.00;99664.13;4974696;28;20545;-88
2023/12/01 06:32:04;;;;;;;22.45;13.18;;;;;;;-2.24;100.00;99664.94;4974492;28;20030;-88
2023/12/01 06:34:30;;;;;;;23.70;12.43;;;;;;;-2.19;100.00;99659.78;4974475;28;20035;-88
2023/12/01 06:36:59;;;;;;;20.80;12.65;;;;;;;-2.21;100.00;99658.97;4974535;28;20029;-88
2023/12/01 06:39:25;;;;;;;22.60;12.57;;;;;;;-2.34;100.00;99668.47;4974576;28;20035;-87
2023/12/01 06:41:52;;;;;;;22.13;12.20;;;;;;;-2.32;100.00;99676.84;4973337;28;20023;-88
2023/12/01 06:44:18;;;;;;;19.17;11.52;;;;;;;-2.37;100.00;99673.56;4974359;28;20106;-87
2023/12/01 06:46:43;;;;;;;19.85;11.45;;;;;;;-2.39;100.00;99673.63;4974294;28;20596;-88
2023/12/01 06:49:09;;;;;;;27.45;13.35;;;;;;;-2.39;100.00;99683.72;4974481;28;20027;-88
2023/12/01 06:51:34;;;;;;;20.42;12.63;;;;;;;-2.43;100.00;99686.31;4974273;28;20029;-88
2023/12/01 06:53:59;;;;;;;21.92;12.38;;;;;;;-2.50;100.00;99693.16;4974315;28;20033;-88
2023/12/01 06:56:25;;;;;;;22.40;13.18;;;;;;;-2.53;100.00;99702.50;4974039;28;20485;-88
2023/12/01 06:58:50;;;;;;;22.27;13.35;;;;;;;-2.55;100.00;99702.50;4974350;28;20497;-88
2023/12/01 07:01:18;;;;;;;22.70;13.15;;;;;;;-2.56;100.00;99707.56;4974033;28;20417;-88
2023/12/01 07:03:47;;;;;;;20.00;12.52;;;;;;;-2.46;100.00;99696.47;4974113;28;20038;-88
2023/12/01 07:06:13;;;;;;;21.08;13.05;;;;;;;-2.42;100.00;99693.03;4974201;28;20441;-89
2023/12/01 07:08:38;;;;;;;20.70;12.98;;;;;;;-2.50;100.00;99690.63;4974192;28;20107;-88
2023/12/01 07:11:05;;;;;;;20.33;12.02;;;;;;;-2.55;100.00;99694.09;4974003;28;20030;-88
2023/12/01 07:13:30;;;;;;;22.02;12.52;;;;;;;-2.57;100.00;99691.59;4973755;28;20081;-88
2023/12/01 07:15:56;;;;;;;28.63;14.15;;;;;;;-2.48;100.00;99693.97;4973895;28;20030;-88
2023/12/01 07:18:23;;;;;;;24.88;14.13;;;;;;;-2.60;100.00;99694.16;4974022;28;20452;-88
2023/12/01 07:20:48;;;;;;;21.30;12.98;;;;;;;-2.59;100.00;99708.44;4973877;28;20033;-88
2023/12/01 07:23:13;;;;;;;26.95;14.77;;;;;;;-2.64;100.00;99718.63;4973816;28;20034;-88
2023/12/01 07:25:40;;;;;;;26.88;14.95;;;;;;;-2.52;100.00;99716.78;4973640;28;20096;-87
2023/12/01 07:28:08;;;;;;;27.92;14.93;;;;;;;-2.55;100.00;99734.53;4972302;28;20042;-87
2023/12/01 07:30:33;;;;;;;27.25;13.43;;;;;;;-2.59;100.00;99724.44;4973838;28;20061;-88
2023/12/01 07:33:00;;;;;;;25.13;14.63;;;;;;;-2.61;100.00;99723.66;4973727;28;20050;-89
2023/12/01 07:35:26;;;;;;;27.15;14.82;;;;;;;-2.59;100.00;99716.84;4973650;28;20452;-89
2023/12/01 07:37:55;;;;;;;29.02;14.82;;;;;;;-2.60;100.00;99727.84;4973704;28;20029;-87
2023/12/01 07:40:21;;;;;;;24.85;15.05;;;;;;;-2.67;100.00;99722.91;4973408;28;20031;-89
2023/12/01 07:42:56;;;;;;;29.70;16.02;;;;;;;-2.66;100.00;99722.03;4973331;28;20030;-89
2023/12/01 07:45:22;;;;;;;30.60;15.80;;;;;;;-2.60;100.00;99730.34;4972911;28;20467;-89
2023/12/01 07:47:49;;;;;;;32.65;15.88;;;;;;;-2.63;100.00;99739.69;4972723;28;20031;-89
2023/12/01 07:50:16;;;;;;;27.45;16.38;;;;;;;-2.54;100.00;99746.28;4973386;28;20506;-89
2023/12/01 07:52:42;;;;;;;33.40;16.58;;;;;;;-2.57;100.00;99739.59;4973353;28;20054;-89
2023/12/01 07:55:09;;;;;;;33.47;18.23;;;;;;;-2.51;100.00;99753.81;4973348;28;20026;-89
2023/12/01 07:57:35;;;;;;;31.25;17.27;;;;;;;-2.45;100.00;99756.25;4972063;28;20025;-89
2023/12/01 08:00:00;;;;;;;28.92;15.70;;;;;;;-2.49;100.00;99757.97;4973308;28;20582;-89
2023/12/01 08:02:27;;;;;;;27.02;16.20;;;;;;;-2.54;100.00;99769.03;4973172;28;20050;-91
2023/12/01 08:04:52;;;;;;;29.88;16.48;;;;;;;-2.65;100.00;99762.44;4973136;28;20018;-90
2023/12/01 08:07:17;;;;;;;37.10;16.90;;;;;;;-2.56;100.00;99768.19;4972936;28;20026;-92
2023/12/01 08:09:43;;;;;;;33.30;16.80;;;;;;;-2.48;100.00;99763.88;4971777;28;20034;-92
2023/12/01 08:12:08;;;;;;;30.92;17.23;;;;;;;-2.54;100.00;99769.84;4974179;28;20465;-90
2023/12/01 08:14:33;;;;;;;34.20;17.27;;;;;;;-2.47;100.00;99770.59;4978083;28;20027;-91
2023/12/01 08:16:59;;;;;;;34.60;16.85;;;;;;;-2.50;100.00;99770.66;4977533;28;20027;-90
2023/12/01 08:19:24;;;;;;;34.25;17.73;;;;;;;-2.50;100.00;99770.66;4978339;28;20046;-90
2023/12/01 08:21:50;;;;;;;29.08;16.15;;;;;;;-2.35;100.00;99770.41;4979180;28;20034;-90
2023/12/01 08:24:18;;;;;;;28.25;16.13;;;;;;;-2.44;100.00;99768.03;4968415;28;20453;-89
2023/12/01 08:26:43;;;;;;;32.50;16.95;;;;;;;-2.42;100.00;99774.72;4978921;28;20061;-92
2023/12/01 08:29:09;;;;;;;29.25;15.27;;;;;;;-2.42;100.00;99766.31;4976824;28;20030;-90
2023/12/01 08:31:35;;;;;;;29.48;16.25;;;;;;;-2.38;100.00;99776.34;4968818;28;20034;-91
2023/12/01 08:34:00;;;;;;;30.30;15.88;;;;;;;-2.31;100.00;99777.09;4977822;28;20034;-89
2023/12/01 08:36:26;;;;;;;34.33;16.15;;;;;;;-2.39;100.00;99773.84;4979096;28;20022;-90
2023/12/01 08:38:51;;;;;;;28.52;16.05;;;;;;;-2.31;100.00;99773.75;4979153;28;20034;-89
2023/12/01 08:41:17;;;;;;;29.80;16.52;;;;;;;-2.40;100.00;99783.13;4979066;28;20110;-91
2023/12/01 08:43:42;;;;;;;28.83;15.85;;;;;;;-2.33;100.00;99786.38;4977963;28;20076;-91
2023/12/01 08:46:08;;;;;;;27.40;16.25;;;;;;;-2.30;100.00;99790.56;4978993;28;20026;-90
2023/12/01 08:48:33;;;;;;;29.88;16.30;;;;;;;-2.40;100.00;99783.13;4978428;28;20452;-90
2023/12/01 08:50:58;;;;;;;33.35;15.43;;;;;;;-2.37;100.00;99798.22;4979322;28;20031;-91
2023/12/01 08:53:24;;;;;;;32.28;16.73;;;;;;;-2.38;100.00;99803.31;4979037;28;20023;-91
2023/12/01 08:55:49;;;;;;;30.42;16.35;;;;;;;-2.30;100.00;99801.50;4979158;28;20033;-90
2023/12/01 08:58:17;;;;;;;29.73;15.02;;;;;;;-2.24;100.00;99798.91;4979109;28;20035;-91
2023/12/01 09:00:43;;;;;;;33.53;15.45;;;;;;;-2.23;100.00;99798.03;4979207;28;20030;-91
2023/12/01 09:03:09;;;;;;;27.45;14.95;;;;;;;-2.28;100.00;99801.50;4979263;28;20117;-90
2023/12/01 09:05:35;;;;;;;32.72;16.75;;;;;;;-2.09;100.00;99802.03;4979102;28;20042;-91
2023/12/01 09:08:04;;;;;;;28.33;15.70;;;;;;;-1.92;100.00;99795.00;4978912;28;20031;-91
2023/12/01 09:10:30;;;;;;;30.45;16.38;;;;;;;-1.78;100.00;99792.22;4979230;28;20055;-91
2023/12/01 09:12:55;;;;;;;29.80;16.55;;;;;;;-1.84;100.00;99803.28;4979071;28;20069;-91
2023/12/01 09:15:20;;;;;;;26.88;15.05;;;;;;;-1.83;100.00;99804.13;4978704;28;20026;-91
2023/12/01 09:17:46;;;;;;;28.38;14.35;;;;;;;-1.81;100.00;99813.34;4978847;28;20030;-91
2023/12/01 09:20:11;;;;;;;26.10;14.32;;;;;;;-1.74;100.00;99812.38;4978813;28;20031;-91
2023/12/01 09:22:37;;;;;;;26.83;13.52;;;;;;;-1.80;100.00;99809.16;4977481;28;20084;-90
2023/12/01 09:25:03;;;;;;;23.33;13.43;;;;;;;-1.70;100.00;99819.94;4975057;28;20372;-91
2023/12/01 09:27:28;;;;;;;24.42;13.48;;;;;;;-1.70;100.00;99819.94;4974581;28;20452;-90
2023/12/01 09:29:54;;;;;;;22.17;12.45;;;;;;;-1.68;100.00;99833.38;4975577;28;20054;-91
2023/12/01 09:32:19;;;;;;;30.73;14.65;;;;;;;-1.61;100.00;99814.72;4975651;28;20031;-91
2023/12/01 09:34:45;;;;;;;23.48;13.80;;;;;;;-1.53;100.00;99817.94;4975627;28;20113;-90
2023/12/01 09:37:10;;;;;;;27.52;15.20;;;;;;;-1.28;100.00;99812.44;4975575;28;20019;-91
2023/12/01 09:39:35;;;;;;;24.52;13.75;;;;;;;-1.17;100.00;99815.56;4975609;28;20061;-91
2023/12/01 09:42:08;;;;;;;26.67;14.10;;;;;;;-1.00;100.00;99812.72;4975686;28;20441;-91
2023/12/01 09:44:35;;;;;;;38.17;14.80;;;;;;;-1.07;100.00;99814.56;4975380;28;20031;-91
2023/12/01 09:47:02;;;;;;;26.17;13.90;;;;;;;-1.09;100.00;99821.34;4975455;28;20029;-91
2023/12/01 09:49:33;;;;;;;27.27;13.32;;;;;;;-1.18;100.00;99819.81;4975629;28;20031;-91
2023/12/01 09:52:00;;;;;;;24.07;12.70;;;;;;;-1.14;100.00;99816.38;4975376;28;20102;-90
2023/12/01 09:54:26;;;;;;;24.10;13.95;;;;;;;-1.07;100.00;99824.69;4973721;28;20299;-91
2023/12/01 09:56:52;;;;;;;26.52;14.38;;;;;;;-1.23;100.00;99836.78;4975238;28;20462;-91
2023/12/01 09:59:19;;;;;;;26.73;14.23;;;;;;;-1.21;100.00;99829.19;4975204;28;20027;-91
2023/12/01 10:01:47;;;;;;;25.25;13.60;;;;;;;-1.11;100.00;99823.06;4975183;28;20124;-91
2023/12/01 10:04:12;;;;;;;28.80;12.02;;;;;;;-1.11;100.00;99825.59;4973820;28;20030;-91
2023/12/01 10:06:38;;;;;;;25.67;12.10;;;;;;;-1.06;100.00;99831.41;4974985;28;20035;-91
2023/12/01 10:09:09;;;;;;;22.92;12.57;;;;;;;-1.08;100.00;99838.19;4975140;28;20023;-91
2023/12/01 10:11:35;;;;;;;25.90;12.60;;;;;;;-1.04;100.00;99831.38;4975013;28;20065;-91
2023/12/01 10:14:07;;;;;;;22.20;12.15;;;;;;;-0.99;100.00;99840.56;4974952;28;20027;-91
2023/12/01 10:16:36;;;;;;;25.42;13.77;;;;;;;-0.91;100.00;99840.41;4975087;28;20027;-91
2023/12/01 10:19:05;;;;;;;28.42;12.25;;;;;;;-0.88;100.00;99848.78;4973987;28;20477;-91
2023/12/01 10:21:48;;;;;;;27.00;13.23;;;;;;;-0.83;100.00;99857.97;4975057;28;20062;-91
2023/12/01 10:24:21;;;;;;;30.17;13.63;;;;;;;-0.71;100.00;99847.59;4974945;28;20034;-91
2023/12/01 10:26:48;;;;;;;27.48;13.80;;;;;;;-0.73;100.00;99850.16;4974828;28;20487;-91
2023/12/01 10:29:24;;;;;;;26.15;13.27;;;;;;;-0.75;100.00;99846.00;4973397;28;20482;-91
2023/12/01 10:31:49;;;;;;;29.45;14.23;;;;;;;-0.81;100.00;99853.72;4973383;28;20555;-91
2023/12/01 10:34:14;;;;;;;28.90;13.63;;;;;;;-0.73;100.00;99861.97;4974589;28;20031;-91
2023/12/01 10:36:41;;;;;;;33.03;14.45;;;;;;;-0.77;100.00;99870.53;4974320;28;20073;-91
2023/12/01 10:39:08;;;;;;;30.75;13.18;;;;;;;-0.73;100.00;99867.91;4974745;28;20033;-91
2023/12/01 10:41:34;;;;;;;28.35;12.75;;;;;;;-0.65;100.00;99866.03;4974645;28;20425;-91
2023/12/01 10:44:00;;;;;;;29.45;12.88;;;;;;;-0.74;100.00;99876.34;4974493;28;20450;-91
2023/12/01 10:46:27;;;;;;;26.92;12.35;;;;;;;-0.66;100.00;99868.59;4974607;28;20106;-91
2023/12/01 10:48:54;;;;;;;26.02;12.75;;;;;;;-0.49;100.00;99869.09;4973073;28;20022;-91
2023/12/01 10:51:20;;;;;;;24.40;13.18;;;;;;;-0.44;100.00;99869.84;4974349;28;20026;-91
2023/12/01 10:53:46;;;;;;;24.67;12.07;;;;;;;-0.25;100.00;99860.09;4974783;28;20059;-91
2023/12/01 10:56:16;;;;;;;30.35;13.02;;;;;;;-0.01;100.00;99873.94;4974211;28;20065;-91
2023/12/01 10:58:45;;;;;;;27.60;13.73;;;;;;;0.13;100.00;99863.47;4974351;28;20473;-91
2023/12/01 11:01:10;;;;;;;22.55;12.23;;;;;;;-0.09;100.00;99869.91;4974151;28;20030;-91
2023/12/01 11:03:40;;;;;;;21.75;12.25;;;;;;;-0.14;100.00;99871.72;4974449;28;20093;-92
2023/12/01 11:06:14;;;;;;;23.55;12.10;;;;;;;-0.11;100.00;99880.09;4974266;28;20019;-91
2023/12/01 11:08:56;;;;;;;24.48;12.90;;;;;;;-0.10;100.00;99873.31;4973991;28;20030;-91